createdAt,value
2018-01-08T00:00:23.126Z,76.90
2018-01-08T00:02:49.379Z,77.00
2018-01-08T00:05:16.622Z,77.10
2018-01-08T00:07:42.875Z,77.10
2018-01-08T00:10:19.150Z,77.00
2018-01-08T00:12:45.328Z,76.80
2018-01-08T00:15:11.576Z,76.80
2018-01-08T00:17:37.786Z,76.80
2018-01-08T00:20:03.952Z,76.70
2018-01-08T00:22:30.124Z,77.20
2018-01-08T00:24:58.514Z,76.80
2018-01-08T00:27:24.693Z,76.70
2018-01-08T00:29:50.987Z,77.00
2018-01-08T00:32:18.145Z,76.90
2018-01-08T00:34:44.332Z,76.80
2018-01-08T00:37:11.372Z,76.80
2018-01-08T00:39:37.567Z,76.70
2018-01-08T00:42:04.562Z,76.90
2018-01-08T00:44:31.115Z,77.00
2018-01-08T00:46:57.278Z,76.70
2018-01-08T00:49:23.456Z,76.80
2018-01-08T00:51:49.862Z,77.30
2018-01-08T00:54:16.929Z,76.80
2018-01-08T00:56:43.238Z,76.80
2018-01-08T00:59:21.573Z,76.70
2018-01-08T01:01:47.778Z,76.70
2018-01-08T01:04:14.307Z,76.70
2018-01-08T01:06:40.487Z,76.60
2018-01-08T01:09:06.835Z,77.20
2018-01-08T01:11:33.133Z,76.80
2018-01-08T01:13:59.273Z,76.50
2018-01-08T01:16:25.596Z,76.70
2018-01-08T01:18:52.523Z,76.70
2018-01-08T01:21:18.696Z,76.90
2018-01-08T01:23:45.287Z,76.70
2018-01-08T01:26:11.493Z,76.50
2018-01-08T01:28:37.681Z,76.70
2018-01-08T01:31:03.884Z,76.80
2018-01-08T01:33:30.065Z,76.70
2018-01-08T01:35:56.307Z,76.60
2018-01-08T01:38:23.327Z,76.60
2018-01-08T01:40:49.505Z,76.80
2018-01-08T01:43:15.710Z,76.80
2018-01-08T01:45:42.220Z,77.20
2018-01-08T01:48:08.404Z,76.80
2018-01-08T01:50:34.824Z,76.90
2018-01-08T01:53:01.046Z,76.70
2018-01-08T01:55:27.283Z,77.00
2018-01-08T01:57:54.299Z,77.40
2018-01-08T02:00:20.472Z,77.40
2018-01-08T02:02:46.656Z,76.90
2018-01-08T02:05:12.844Z,76.80
2018-01-08T02:07:38.998Z,76.90
2018-01-08T02:10:05.143Z,77.20
2018-01-08T02:25:21.325Z,77.10
2018-01-08T02:27:47.501Z,77.10
2018-01-08T02:30:14.636Z,77.10
2018-01-08T02:32:41.587Z,77.30
2018-01-08T02:35:07.874Z,77.30
2018-01-08T02:37:34.091Z,77.50
2018-01-08T02:40:00.302Z,77.40
2018-01-08T02:42:26.501Z,77.30
2018-01-08T02:44:52.688Z,77.30
2018-01-08T02:47:18.877Z,77.90
2018-01-08T02:49:45.038Z,78.00
2018-01-08T02:52:11.324Z,77.30
2018-01-08T02:54:37.532Z,77.50
2018-01-08T02:57:03.831Z,77.30
2018-01-08T02:59:30.099Z,77.30
2018-01-08T03:01:57.355Z,77.40
2018-01-08T03:04:23.873Z,77.30
2018-01-08T03:06:50.783Z,77.80
2018-01-08T03:09:16.952Z,77.10
2018-01-08T03:11:43.178Z,77.10
2018-01-08T03:14:10.106Z,77.80
2018-01-08T03:16:36.283Z,77.20
2018-01-08T03:19:02.465Z,77.20
2018-01-08T03:21:28.677Z,77.10
2018-01-08T03:23:54.853Z,77.20
2018-01-08T03:26:21.037Z,77.30
2018-01-08T03:28:47.236Z,77.50
2018-01-08T03:31:13.439Z,77.30
2018-01-08T03:33:40.329Z,77.80
2018-01-08T03:36:06.595Z,77.70
2018-01-08T03:38:33.375Z,77.50
2018-01-08T03:40:59.591Z,78.10
2018-01-08T03:43:25.811Z,77.30
2018-01-08T03:45:51.957Z,77.50
2018-01-08T03:48:18.144Z,77.30
2018-01-08T03:50:44.306Z,77.80
2018-01-08T03:53:10.490Z,77.40
2018-01-08T03:55:36.667Z,77.40
2018-01-08T03:58:02.885Z,77.60
2018-01-08T04:00:29.040Z,77.80
2018-01-08T04:02:55.217Z,77.60
2018-01-08T04:05:21.413Z,77.60
2018-01-08T04:07:47.596Z,77.50
2018-01-08T04:10:13.766Z,77.30
2018-01-08T04:12:40.913Z,77.60
2018-01-08T04:15:07.134Z,77.80
2018-01-08T04:17:33.317Z,77.50
2018-01-08T04:19:59.474Z,77.40
2018-01-08T04:22:25.695Z,77.30
2018-01-08T04:24:51.888Z,77.60
2018-01-08T04:27:18.065Z,77.80
2018-01-08T04:29:44.244Z,77.60
2018-01-08T04:32:10.433Z,77.70
2018-01-08T04:34:36.579Z,77.60
2018-01-08T04:37:02.749Z,77.50
2018-01-08T04:39:28.934Z,77.70
2018-01-08T04:41:55.145Z,77.80
2018-01-08T04:44:21.337Z,77.80
2018-01-08T04:46:47.538Z,77.80
2018-01-08T04:49:13.674Z,77.60
2018-01-08T04:51:39.927Z,77.70
2018-01-08T04:54:06.069Z,77.80
2018-01-08T04:56:33.017Z,78.30
2018-01-08T04:58:59.226Z,77.90
2018-01-08T05:01:25.482Z,78.10
2018-01-08T05:03:51.663Z,78.10
2018-01-08T05:06:17.880Z,78.10
2018-01-08T05:08:44.097Z,78.10
2018-01-08T05:11:10.257Z,78.70
2018-01-08T05:13:36.427Z,78.00
2018-01-08T05:16:02.631Z,78.10
2018-01-08T05:18:28.810Z,78.10
2018-01-08T05:20:55.046Z,78.30
2018-01-08T05:23:21.207Z,78.80
2018-01-08T05:25:47.462Z,78.40
2018-01-08T05:28:14.346Z,78.60
2018-01-08T05:30:41.322Z,79.00
2018-01-08T05:33:07.521Z,79.00
2018-01-08T05:35:34.437Z,78.70
2018-01-08T05:38:00.621Z,78.70
2018-01-08T05:40:27.249Z,78.70
2018-01-08T05:42:53.405Z,78.60
2018-01-08T05:45:19.586Z,78.70
2018-01-08T05:47:46.146Z,78.60
2018-01-08T05:50:12.313Z,78.60
2018-01-08T05:52:38.492Z,78.60
2018-01-08T05:55:04.677Z,78.70
2018-01-08T05:57:30.906Z,78.80
2018-01-08T05:59:57.093Z,78.60
2018-01-08T06:02:23.345Z,78.60
2018-01-08T06:04:49.522Z,78.60
2018-01-08T06:07:15.709Z,79.10
2018-01-08T06:09:41.915Z,78.60
2018-01-08T06:12:08.105Z,79.10
2018-01-08T06:14:34.302Z,79.10
2018-01-08T06:17:00.489Z,78.70
2018-01-08T06:19:26.785Z,78.80
2018-01-08T06:21:53.050Z,78.60
2018-01-08T06:24:19.217Z,78.80
2018-01-08T06:26:45.464Z,78.70
2018-01-08T06:29:11.693Z,78.30
2018-01-08T06:31:38.705Z,78.00
2018-01-08T06:34:04.882Z,78.20
2018-01-08T06:36:31.133Z,78.50
2018-01-08T06:38:57.336Z,78.40
2018-01-08T06:41:23.562Z,78.50
2018-01-08T06:43:49.777Z,78.50
2018-01-08T06:46:15.940Z,78.50
2018-01-08T06:48:42.306Z,77.00
2018-01-08T06:51:08.637Z,78.10
2018-01-08T06:53:34.828Z,78.60
2018-01-08T06:56:01.007Z,79.10
2018-01-08T06:58:27.558Z,78.30
2018-01-08T07:00:53.734Z,78.20
2018-01-08T07:03:19.932Z,78.00
2018-01-08T07:05:46.135Z,77.90
2018-01-08T07:08:12.692Z,78.10
2018-01-08T07:10:38.903Z,78.20
2018-01-08T07:13:05.067Z,78.80
2018-01-08T07:15:31.269Z,78.30
2018-01-08T07:17:57.510Z,78.30
2018-01-08T07:20:23.704Z,78.80
2018-01-08T07:22:51.504Z,78.50
2018-01-08T07:25:17.764Z,78.30
2018-01-08T07:27:44.086Z,78.50
2018-01-08T07:30:10.400Z,78.50
2018-01-08T07:32:36.576Z,78.20
2018-01-08T07:35:02.800Z,79.00
2018-01-08T07:37:29.044Z,78.50
2018-01-08T07:39:55.228Z,78.50
2018-01-08T07:42:21.423Z,78.50
2018-01-08T07:44:47.561Z,78.50
2018-01-08T07:47:14.555Z,78.10
2018-01-08T07:49:40.719Z,78.00
2018-01-08T07:52:07.711Z,78.50
2018-01-08T07:54:33.946Z,78.00
2018-01-08T07:57:00.898Z,77.70
2018-01-08T07:59:27.150Z,77.60
2018-01-08T08:01:53.366Z,77.90
2018-01-08T08:04:20.650Z,78.20
2018-01-08T08:06:47.192Z,77.90
2018-01-08T08:09:13.487Z,77.90
2018-01-08T08:11:40.516Z,77.80
2018-01-08T08:14:06.714Z,78.40
2018-01-08T08:16:32.890Z,78.00
2018-01-08T08:18:59.067Z,77.80
2018-01-08T08:21:25.242Z,77.90
2018-01-08T08:23:51.432Z,77.90
2018-01-08T08:26:17.610Z,77.60
2018-01-08T08:28:43.866Z,77.60
2018-01-08T08:31:10.038Z,77.60
2018-01-08T08:33:36.227Z,77.60
2018-01-08T08:36:02.410Z,77.30
2018-01-08T08:38:29.349Z,77.60
2018-01-08T08:40:55.523Z,77.40
2018-01-08T08:43:21.735Z,77.80
2018-01-08T08:45:48.971Z,77.60
2018-01-08T08:48:15.270Z,77.40
2018-01-08T08:50:41.771Z,77.60
2018-01-08T08:53:08.354Z,77.50
2018-01-08T08:55:34.843Z,77.10
2018-01-08T08:58:01.045Z,77.00
2018-01-08T09:00:27.233Z,77.10
2018-01-08T09:02:53.400Z,76.90
2018-01-08T09:05:20.509Z,76.80
2018-01-08T09:07:47.431Z,76.90
2018-01-08T09:10:13.647Z,76.80
2018-01-08T09:12:39.892Z,77.00
2018-01-08T09:15:06.079Z,76.80
2018-01-08T09:17:32.751Z,76.90
2018-01-08T09:19:59.103Z,76.70
2018-01-08T09:22:25.706Z,76.70
2018-01-08T09:24:52.031Z,76.70
2018-01-08T09:27:18.231Z,76.60
2018-01-08T09:29:44.472Z,76.60
2018-01-08T09:32:10.817Z,76.60
2018-01-08T09:34:37.018Z,76.50
2018-01-08T09:37:03.226Z,77.00
2018-01-08T09:39:29.411Z,76.40
2018-01-08T09:41:56.166Z,76.30
2018-01-08T09:44:22.871Z,76.10
2018-01-08T09:46:49.062Z,76.10
2018-01-08T09:49:15.243Z,75.80
2018-01-08T09:51:42.411Z,75.90
2018-01-08T09:54:08.604Z,75.70
2018-01-08T09:56:34.781Z,76.20
2018-01-08T09:59:01.088Z,75.90
2018-01-08T10:01:27.608Z,76.00
2018-01-08T10:04:05.937Z,75.90
2018-01-08T10:06:45.025Z,76.40
2018-01-08T10:09:23.364Z,76.00
2018-01-08T10:12:01.645Z,77.20
2018-01-08T10:14:39.955Z,76.30
2018-01-08T10:17:18.564Z,76.10
2018-01-08T10:20:01.565Z,76.70
2018-01-08T10:22:27.723Z,76.00
2018-01-08T10:24:53.986Z,76.30
2018-01-08T10:27:20.571Z,76.10
2018-01-08T10:29:46.819Z,76.30
2018-01-08T10:32:13.037Z,76.10
2018-01-08T10:34:39.215Z,76.50
2018-01-08T10:37:05.402Z,75.80
2018-01-08T10:39:31.692Z,76.40
2018-01-08T10:42:03.953Z,76.10
2018-01-08T10:44:36.925Z,76.00
2018-01-08T10:47:09.886Z,75.70
2018-01-08T10:49:42.136Z,75.90
2018-01-08T10:52:08.643Z,75.90
2018-01-08T10:54:36.717Z,76.10
2018-01-08T10:57:03.690Z,76.20
2018-01-08T10:59:30.017Z,76.00
2018-01-08T11:02:02.894Z,76.30
2018-01-08T11:04:29.151Z,75.90
2018-01-08T11:06:55.437Z,75.80
2018-01-08T11:09:22.520Z,75.90
2018-01-08T11:11:48.792Z,76.00
2018-01-08T11:14:15.044Z,76.00
2018-01-08T11:16:41.374Z,76.10
2018-01-08T11:19:07.605Z,76.50
2018-01-08T11:21:33.806Z,75.70
2018-01-08T11:24:00.014Z,75.70
2018-01-08T11:26:26.264Z,75.70
2018-01-08T11:28:52.463Z,75.70
2018-01-08T11:31:18.633Z,75.70
2018-01-08T11:33:44.930Z,75.30
2018-01-08T11:36:11.133Z,75.90
2018-01-08T11:38:37.417Z,75.30
2018-01-08T11:41:03.693Z,76.60
2018-01-08T11:43:29.913Z,75.20
2018-01-08T11:45:56.133Z,75.10
2018-01-08T11:48:22.406Z,75.10
2018-01-08T11:50:48.717Z,75.30
2018-01-08T11:53:14.926Z,75.30
2018-01-08T11:55:41.144Z,75.20
2018-01-08T11:58:08.062Z,75.30
2018-01-08T12:00:34.984Z,75.80
2018-01-08T12:03:01.198Z,75.30
2018-01-08T12:05:27.455Z,75.30
2018-01-08T12:07:53.661Z,75.00
2018-01-08T12:10:20.591Z,75.10
2018-01-08T12:12:46.796Z,75.30
2018-01-08T12:15:13.013Z,74.40
2018-01-08T12:17:39.258Z,74.50
2018-01-08T12:20:05.436Z,74.30
2018-01-08T12:22:31.618Z,74.20
2018-01-08T12:24:57.846Z,74.30
2018-01-08T12:27:24.018Z,74.20
2018-01-08T12:29:50.255Z,74.20
2018-01-08T12:32:16.443Z,74.50
2018-01-08T12:34:42.703Z,74.60
2018-01-08T12:37:08.953Z,75.00
2018-01-08T12:39:35.164Z,75.00
2018-01-08T12:42:02.297Z,75.00
2018-01-08T12:44:29.305Z,75.10
2018-01-08T12:46:56.206Z,74.90
2018-01-08T12:49:22.424Z,74.80
2018-01-08T12:51:48.745Z,74.80
2018-01-08T12:54:15.357Z,74.80
2018-01-08T12:56:41.584Z,74.60
2018-01-08T12:59:07.772Z,74.50
2018-01-08T13:01:33.976Z,74.80
2018-01-08T13:04:16.402Z,74.40
2018-01-08T13:06:42.685Z,74.30
2018-01-08T13:09:08.917Z,74.40
2018-01-08T13:11:35.469Z,74.40
2018-01-08T13:14:01.635Z,74.30
2018-01-08T13:16:28.957Z,74.80
2018-01-08T13:18:55.189Z,74.20
2018-01-08T13:21:21.400Z,74.10
2018-01-08T13:23:47.584Z,74.10
2018-01-08T13:26:27.999Z,74.30
2018-01-08T13:28:54.205Z,74.40
2018-01-08T13:31:20.488Z,74.30
2018-01-08T13:33:46.900Z,74.60
2018-01-08T13:36:13.479Z,74.50
2018-01-08T13:38:39.774Z,74.70
2018-01-08T13:41:06.034Z,74.50
2018-01-08T13:43:32.209Z,74.50
2018-01-08T13:45:58.807Z,74.50
2018-01-08T13:48:25.040Z,74.70
2018-01-08T13:50:51.310Z,74.80
2018-01-08T13:53:17.584Z,74.80
2018-01-08T13:55:43.822Z,74.90
2018-01-08T13:58:10.036Z,74.80
2018-01-08T14:00:36.256Z,74.70
2018-01-08T14:03:02.510Z,74.80
2018-01-08T14:05:28.734Z,74.80
2018-01-08T14:07:54.993Z,74.70
2018-01-08T14:10:22.031Z,75.00
2018-01-08T14:12:48.346Z,74.80
2018-01-08T14:15:14.594Z,74.90
2018-01-08T14:17:40.881Z,75.00
2018-01-08T14:20:07.099Z,74.90
2018-01-08T14:22:33.361Z,74.80
2018-01-08T14:25:00.313Z,75.50
2018-01-08T14:27:27.611Z,75.10
2018-01-08T14:30:08.707Z,81.80
2018-01-08T14:32:34.918Z,84.90
2018-01-08T14:35:02.055Z,79.50
2018-01-08T14:37:28.242Z,79.00
2018-01-08T14:39:55.306Z,75.10
2018-01-08T14:42:21.658Z,75.40
2018-01-08T14:44:47.881Z,72.40
2018-01-08T14:47:14.522Z,72.80
2018-01-08T14:49:40.765Z,73.40
2018-01-08T14:52:07.674Z,74.60
2018-01-08T14:54:34.498Z,74.50
2018-01-08T14:57:00.713Z,74.90
2018-01-08T14:59:26.899Z,75.00
2018-01-08T15:01:53.160Z,75.30
2018-01-08T15:04:19.445Z,75.30
2018-01-08T15:06:46.431Z,76.10
2018-01-08T15:09:12.650Z,75.70
2018-01-08T15:11:39.594Z,75.60
2018-01-08T15:14:06.735Z,75.60
2018-01-08T15:16:33.473Z,75.70
2018-01-08T15:18:59.749Z,75.60
2018-01-08T15:21:26.009Z,75.80
2018-01-08T15:23:52.256Z,75.80
2018-01-08T15:26:19.212Z,76.30
2018-01-08T15:28:45.416Z,75.90
2018-01-08T15:31:11.645Z,76.00
2018-01-08T15:33:38.674Z,76.00
2018-01-08T15:36:05.593Z,75.70
2018-01-08T15:38:31.855Z,75.70
2018-01-08T15:40:58.067Z,75.70
2018-01-08T15:43:24.374Z,76.30
2018-01-08T15:45:50.576Z,75.80
2018-01-08T15:48:16.752Z,75.80
2018-01-08T15:50:43.399Z,76.50
2018-01-08T15:53:09.679Z,76.50
2018-01-08T15:55:35.888Z,75.60
2018-01-08T15:58:02.104Z,75.60
2018-01-08T16:00:28.324Z,75.60
2018-01-08T16:02:54.640Z,75.60
2018-01-08T16:05:21.863Z,75.50
2018-01-08T16:07:48.393Z,75.30
2018-01-08T16:10:15.352Z,75.80
2018-01-08T16:12:41.566Z,75.10
2018-01-08T16:15:08.656Z,75.10
2018-01-08T16:17:35.655Z,75.30
2018-01-08T16:20:02.084Z,75.50
2018-01-08T16:22:28.340Z,75.50
2018-01-08T16:24:54.557Z,75.50
2018-01-08T16:27:20.816Z,75.60
2018-01-08T16:29:47.103Z,75.40
2018-01-08T16:32:13.259Z,75.10
2018-01-08T16:34:39.568Z,75.30
2018-01-08T16:37:05.947Z,75.50
2018-01-08T16:39:32.328Z,75.60
2018-01-08T16:41:58.820Z,75.60
2018-01-08T16:44:25.088Z,75.50
2018-01-08T16:46:51.262Z,75.10
2018-01-08T16:49:17.578Z,75.00
2018-01-08T16:51:43.765Z,75.10
2018-01-08T16:54:10.003Z,75.10
2018-01-08T16:56:36.169Z,75.10
2018-01-08T16:59:02.428Z,75.20
2018-01-08T17:01:30.300Z,75.70
2018-01-08T17:03:56.605Z,75.60
2018-01-08T17:06:22.751Z,75.20
2018-01-08T17:08:48.969Z,75.10
2018-01-08T17:20:55.239Z,74.80
2018-01-08T17:23:22.122Z,75.20
2018-01-08T17:25:48.350Z,74.90
2018-01-08T17:28:14.545Z,75.00
2018-01-08T17:30:40.866Z,75.00
2018-01-08T17:33:07.100Z,75.00
2018-01-08T17:35:33.353Z,75.00
2018-01-08T17:38:01.640Z,74.80
2018-01-08T17:40:28.458Z,74.80
2018-01-08T17:42:57.059Z,74.70
2018-01-08T17:45:23.808Z,74.70
2018-01-08T17:48:04.938Z,74.80
2018-01-08T17:53:05.939Z,75.00
2018-01-08T17:55:32.122Z,74.90
2018-01-08T17:57:58.343Z,75.00
2018-01-08T18:00:24.599Z,74.80
2018-01-08T18:02:50.833Z,74.80
2018-01-08T18:05:17.077Z,74.90
2018-01-08T18:07:43.361Z,75.30
2018-01-08T18:10:09.546Z,74.50
2018-01-08T18:12:35.816Z,74.50
2018-01-08T18:15:02.151Z,74.50
2018-01-08T18:17:28.318Z,74.60
2018-01-08T18:19:55.974Z,74.80
2018-01-08T18:22:22.235Z,75.10
2018-01-08T18:24:49.187Z,75.60
2018-01-08T18:27:15.790Z,74.90
2018-01-08T18:29:43.003Z,74.80
2018-01-08T18:32:09.934Z,75.60
2018-01-08T18:34:36.478Z,74.90
2018-01-08T18:37:02.744Z,74.90
2018-01-08T18:39:29.003Z,75.00
2018-01-08T18:41:55.326Z,74.80
2018-01-08T18:44:21.522Z,75.00
2018-01-08T18:46:47.703Z,74.80
2018-01-08T18:49:13.896Z,74.80
2018-01-08T18:51:40.080Z,75.20
2018-01-08T18:54:06.308Z,75.20
2018-01-08T18:56:32.544Z,75.10
2018-01-08T18:58:59.122Z,75.10
2018-01-08T19:01:25.357Z,75.00
2018-01-08T19:03:51.676Z,75.00
2018-01-08T19:06:18.958Z,74.80
2018-01-08T19:08:45.337Z,74.60
2018-01-08T19:11:11.579Z,74.90
2018-01-08T19:13:38.223Z,75.10
2018-01-08T19:16:04.436Z,75.30
2018-01-08T19:18:30.684Z,75.20
2018-01-08T19:20:56.932Z,75.00
2018-01-08T19:23:23.131Z,75.20
2018-01-08T19:25:49.351Z,75.20
2018-01-08T19:28:15.607Z,85.90
2018-01-08T19:30:41.979Z,82.50
2018-01-08T19:33:08.247Z,79.70
2018-01-08T19:35:34.506Z,76.30
2018-01-08T19:38:01.120Z,71.00
2018-01-08T19:40:27.474Z,71.40
2018-01-08T19:42:53.777Z,72.10
2018-01-08T19:55:00.968Z,74.20
2018-01-08T19:57:27.312Z,74.40
2018-01-08T19:59:53.501Z,74.50
2018-01-08T20:02:19.755Z,74.70
2018-01-08T20:04:45.976Z,74.40
2018-01-08T20:07:12.390Z,74.70
2018-01-08T20:09:38.628Z,74.50
2018-01-08T20:12:04.974Z,74.80
2018-01-08T20:14:31.224Z,74.80
2018-01-08T20:16:57.507Z,75.00
2018-01-08T20:19:23.924Z,75.00
2018-01-08T20:21:50.514Z,74.90
2018-01-08T20:24:16.734Z,74.90
2018-01-08T20:26:43.690Z,76.10
2018-01-08T20:29:09.931Z,74.90
2018-01-08T20:31:36.204Z,75.10
2018-01-08T20:34:02.473Z,75.10
2018-01-08T20:36:28.732Z,75.00
2018-01-08T20:38:54.998Z,74.80
2018-01-08T20:41:21.248Z,74.90
2018-01-08T20:43:47.452Z,75.10
2018-01-08T20:46:13.712Z,75.10
2018-01-08T20:48:39.900Z,75.00
2018-01-08T20:51:06.152Z,74.90
2018-01-08T20:53:32.333Z,74.80
2018-01-08T20:55:59.386Z,74.90
2018-01-08T20:58:25.625Z,75.10
2018-01-08T21:00:51.844Z,75.20
2018-01-08T21:03:18.071Z,75.00
2018-01-08T21:05:44.298Z,74.70
2018-01-08T21:08:11.513Z,75.10
2018-01-08T21:10:39.288Z,75.10
2018-01-08T21:13:05.508Z,75.10
2018-01-08T21:15:32.251Z,75.10
2018-01-08T21:17:58.446Z,75.20
2018-01-08T21:20:24.822Z,75.20
2018-01-08T21:22:51.082Z,75.40
2018-01-08T21:25:18.640Z,75.10
2018-01-08T21:27:45.521Z,75.10
2018-01-08T21:30:11.725Z,75.00
2018-01-08T21:32:38.582Z,75.20
2018-01-08T21:35:05.148Z,75.10
2018-01-08T21:37:31.401Z,75.40
2018-01-08T21:39:58.442Z,75.10
2018-01-08T21:42:24.773Z,75.00
2018-01-08T21:44:51.046Z,75.10
2018-01-08T21:47:17.322Z,75.30
2018-01-08T21:49:44.234Z,75.30
2018-01-08T21:52:11.199Z,75.60
2018-01-08T21:54:37.462Z,75.10
2018-01-08T21:57:03.715Z,75.80
2018-01-08T21:59:31.042Z,75.10
2018-01-08T22:01:58.134Z,75.30
2018-01-08T22:04:25.230Z,75.90
2018-01-08T22:06:51.406Z,75.40
2018-01-08T22:09:21.037Z,75.40
2018-01-08T22:11:47.226Z,75.40
2018-01-08T22:14:13.794Z,75.40
2018-01-08T22:16:41.384Z,75.80
2018-01-08T22:19:08.299Z,75.40
2018-01-08T22:21:34.520Z,75.40
2018-01-08T22:24:00.753Z,75.40
2018-01-08T22:26:27.027Z,75.40
2018-01-08T22:28:53.225Z,75.50
2018-01-08T22:31:20.645Z,76.60
2018-01-08T22:33:47.685Z,75.30
2018-01-08T22:36:14.235Z,75.40
2018-01-08T22:38:40.641Z,75.40
2018-01-08T22:41:06.924Z,75.40
2018-01-08T22:43:47.714Z,76.10
2018-01-08T22:46:14.068Z,75.50
2018-01-08T22:48:40.312Z,75.40
2018-01-08T22:51:07.257Z,76.10
2018-01-08T22:53:33.818Z,75.50
2018-01-08T22:56:00.062Z,75.40
2018-01-08T22:58:26.998Z,76.10
2018-01-08T23:00:53.791Z,75.50
2018-01-08T23:03:20.023Z,75.50
2018-01-08T23:05:46.291Z,75.50
2018-01-08T23:08:12.996Z,75.50
2018-01-08T23:10:40.409Z,75.70
2018-01-08T23:13:11.448Z,75.70
2018-01-08T23:15:38.374Z,75.50
2018-01-08T23:18:04.585Z,75.60
2018-01-08T23:20:30.815Z,75.50
2018-01-08T23:22:57.002Z,75.50
2018-01-08T23:25:23.146Z,75.50
2018-01-08T23:27:49.330Z,75.60
2018-01-08T23:30:15.566Z,75.50
2018-01-08T23:32:41.745Z,75.50
2018-01-08T23:35:07.979Z,75.50
2018-01-08T23:37:34.119Z,75.50
2018-01-08T23:40:01.614Z,75.60
2018-01-08T23:42:27.852Z,75.50
2018-01-08T23:44:54.873Z,75.50
2018-01-08T23:47:21.698Z,75.50
2018-01-08T23:49:47.905Z,75.50
2018-01-08T23:52:14.118Z,75.70
2018-01-08T23:54:40.334Z,75.80
2018-01-08T23:57:06.916Z,75.60
2018-01-08T23:59:33.134Z,75.80
